Date,TemperatureHighF,TemperatureAvgF,TemperatureLowF,DewpointHighF,DewpointAvgF,DewpointLowF,HumidityHigh,HumidityAvg,HumidityLow,PressureMaxIn,PressureMinIn,WindSpeedMaxMPH,WindSpeedAvgMPH,GustSpeedMaxMPH,PrecipitationSumIn
2013-1-1,20.5,11.3,-0.1,12.9,6.9,-3.0,90,82,71,30.41,30.21,8,3,10,0.00
2013-1-2,34.7,23.3,9.8,29.9,19.6,6.1,90,85,78,30.30,30.13,6,3,8,0.01
2013-1-3,29.7,21.9,13.3,26.3,18.0,10.6,91,85,78,30.47,30.30,12,5,16,0.00
2013-1-4,32.2,18.4,9.9,21.4,13.8,7.4,91,83,63,30.38,30.21,9,4,12,0.00
2013-1-5,32.5,20.7,9.6,24.3,16.4,7.3,93,83,71,30.30,30.07,14,5,19,0.00
2013-1-6,33.1,20.0,5.8,24.8,15.7,3.3,92,84,70,30.40,30.19,12,3,14,0.00
2013-1-7,38.0,29.2,15.5,29.7,23.8,13.1,94,80,70,30.19,30.00,16,5,17,0.00
2013-1-8,37.2,24.1,10.3,30.5,20.7,8.2,94,87,76,30.20,29.89,13,3,17,0.00
2013-1-9,39.2,29.7,17.5,31.8,25.9,14.7,94,86,71,30.49,30.20,9,1,14,0.00
2013-1-10,37.9,32.9,25.1,34.7,30.0,22.5,96,90,68,30.38,29.71,11,3,12,0.19
2013-1-11,46.5,37.0,25.3,45.4,35.5,18.8,96,94,76,29.79,29.39,13,4,22,0.01
2013-1-12,24.5,17.5,9.9,17.7,10.0,4.2,79,72,64,30.22,29.79,12,7,19,0.00
2013-1-13,20.4,11.5,5.2,8.7,4.9,1.0,84,75,58,30.44,30.21,9,4,13,0.00
2013-1-14,27.0,14.4,2.7,14.9,8.1,-0.4,89,77,55,30.56,30.44,8,2,10,0.00
2013-1-15,33.9,21.0,7.7,22.9,15.0,4.9,90,78,62,30.44,30.10,11,5,15,0.00
2013-1-16,50.8,35.2,20.8,36.9,28.1,16.8,89,76,57,30.28,29.98,10,5,13,0.00
2013-1-17,35.3,28.4,23.9,33.8,27.0,22.4,96,94,88,30.50,30.28,10,2,10,0.00
2013-1-18,48.3,37.0,24.2,36.2,30.5,22.8,96,78,61,30.32,29.91,15,6,20,0.00
2013-1-19,50.5,38.0,21.9,36.9,29.4,13.3,89,72,57,30.39,29.88,15,6,18,0.00
2013-1-20,21.5,16.2,10.3,13.5,8.7,5.7,88,72,57,30.50,30.35,11,5,17,0.00
2013-1-21,14.8,10.5,5.9,10.6,-0.2,-6.9,86,62,53,30.56,30.45,13,5,18,0.00
2013-1-22,23.0,14.0,9.6,14.3,8.5,1.3,88,79,64,30.48,30.32,6,3,9,0.00
2013-1-23,28.2,17.0,9.3,20.8,11.3,2.2,88,79,66,30.59,30.24,14,6,18,0.00
2013-1-24,18.2,9.9,1.4,8.0,0.3,-5.6,75,65,54,30.66,30.27,15,6,18,0.00
2013-1-25,47.6,28.0,11.6,30.5,19.1,5.3,87,70,48,30.30,30.19,8,3,11,0.00
2013-1-26,51.6,31.6,17.4,31.4,23.2,14.2,89,73,43,30.30,30.03,15,7,17,0.00
2013-1-27,41.1,37.6,34.7,40.0,35.6,27.5,96,93,67,30.03,29.70,13,5,20,0.15
2013-1-28,42.3,37.4,33.3,41.5,36.4,32.3,97,96,96,29.88,29.58,6,2,10,0.01
2013-1-29,37.2,33.1,29.9,36.2,31.1,28.4,96,92,86,29.73,29.60,16,9,17,0.00
2013-1-30,30.0,21.1,12.8,28.7,17.1,9.3,95,85,70,30.01,29.67,16,9,24,0.00
2013-1-31,15.1,6.8,-2.7,10.3,-0.3,-7.4,81,72,61,30.54,30.00,17,8,24,0.00
2013-2-1,27.5,13.7,-3.6,20.7,7.9,-8.0,85,77,71,30.54,30.15,17,7,20,0.00
2013-2-2,40.0,30.2,22.1,34.3,25.5,18.8,92,83,72,30.27,30.09,15,4,22,0.00
2013-2-3,42.6,33.0,20.2,32.1,26.4,16.0,90,77,59,30.27,29.81,15,6,19,0.00
2013-2-4,35.9,26.5,21.5,30.9,23.0,19.0,92,87,81,30.07,29.80,17,6,21,0.00
2013-2-5,49.1,36.4,24.5,35.7,29.1,22.8,95,76,50,30.09,29.88,10,4,14,0.00
2013-2-6,56.2,40.5,28.7,42.9,34.1,25.6,90,78,59,30.10,29.83,12,5,14,0.00
2013-2-7,39.0,32.4,28.5,35.5,29.1,24.3,92,88,84,30.30,29.90,12,8,18,0.00
2013-2-8,32.3,28.0,24.8,28.2,25.0,22.0,92,88,83,30.39,30.17,11,6,13,0.00
2013-2-9,50.5,37.5,28.0,41.0,33.1,25.9,94,85,69,30.19,29.69,16,12,23,0.00
2013-2-10,43.3,36.3,30.5,42.0,32.9,24.3,98,88,76,29.86,29.27,19,11,24,0.05
2013-2-11,36.2,29.4,21.4,26.4,23.6,19.2,93,79,66,30.20,29.86,15,6,21,0.00
2013-2-12,48.5,31.6,17.8,29.1,22.7,16.1,95,73,41,30.20,29.94,11,4,13,0.00
2013-2-13,53.4,37.4,23.4,33.9,27.8,20.5,90,71,42,29.95,29.75,11,4,13,0.00
2013-2-14,43.9,35.3,19.5,32.5,27.6,14.6,95,75,49,30.33,29.82,21,6,22,0.00
2013-2-15,30.6,20.2,11.0,26.1,15.4,8.2,93,82,58,30.43,30.33,13,3,17,0.00
2013-2-16,34.7,22.0,5.1,28.5,17.9,2.1,92,84,70,30.42,30.07,12,4,14,0.00
2013-2-17,52.2,35.8,21.0,40.2,29.4,18.3,91,78,63,30.07,29.58,16,7,19,0.02
2013-2-18,38.9,31.2,20.6,33.5,25.2,16.5,94,79,64,30.12,29.57,19,10,25,0.00
2013-2-19,25.6,16.2,8.7,18.2,5.6,1.8,83,64,38,30.47,30.12,16,9,21,0.00
2013-2-20,23.9,14.6,4.8,11.7,4.9,-1.1,79,66,52,30.49,30.28,10,6,16,0.00
2013-2-21,23.7,21.2,19.9,19.7,15.0,9.4,93,78,58,30.33,29.91,13,9,18,0.00
2013-2-22,22.6,16.5,5.0,18.7,13.0,2.3,93,86,74,30.11,29.91,12,5,13,0.00
2013-2-23,35.9,16.8,-0.9,27.0,12.4,-4.1,92,83,67,30.09,29.91,10,3,11,0.00
2013-2-24,38.6,28.4,15.3,30.6,24.2,13.3,94,85,68,30.13,29.97,7,3,8,0.00
2013-2-25,32.9,28.0,24.8,28.0,24.9,22.0,93,88,81,30.13,29.96,13,8,17,0.00
2013-2-26,30.4,26.5,23.3,27.5,24.4,21.8,95,92,88,29.98,29.84,16,10,16,0.00
2013-2-27,36.9,30.0,23.4,29.1,24.7,19.9,92,81,66,30.16,29.96,17,11,25,0.00
2013-2-28,30.8,26.9,24.6,26.0,22.9,20.4,87,84,80,30.30,30.16,13,9,19,0.00
2013-3-1,28.9,24.9,20.6,21.7,19.0,15.4,89,78,68,30.43,30.28,15,9,20,0.00
2013-3-2,36.3,25.1,10.3,26.3,19.4,8.0,91,79,61,30.42,30.14,7,3,8,0.00
2013-3-3,40.1,32.3,25.1,33.5,27.5,22.6,91,83,75,30.15,29.74,13,6,15,0.00
2013-3-4,39.6,33.5,27.8,31.7,28.6,21.7,94,83,65,30.08,29.68,13,6,17,0.00
2013-3-5,32.3,27.0,22.8,22.3,19.7,16.4,82,74,64,30.45,30.06,19,11,27,0.00
2013-3-6,38.6,27.5,19.4,25.5,20.4,15.6,86,75,56,30.49,30.28,12,5,14,0.00
2013-3-7,51.2,34.7,23.1,33.4,26.6,19.6,88,74,49,30.32,30.11,13,8,18,0.00
2013-3-8,55.4,39.8,28.7,41.7,33.1,25.3,96,78,59,30.21,29.92,11,6,15,0.27
2013-3-9,56.9,44.8,34.0,53.6,43.1,32.8,97,94,85,29.92,29.53,19,8,21,0.17
2013-3-10,34.2,26.5,21.6,32.6,25.1,20.1,96,94,92,30.02,29.71,20,14,23,0.01
2013-3-11,33.4,22.7,16.8,22.0,17.7,13.1,94,81,62,30.08,29.95,13,6,18,0.01
2013-3-12,33.3,25.7,14.1,25.7,20.5,11.2,95,81,70,30.40,30.08,12,5,19,0.00
2013-3-13,35.3,23.9,11.6,27.1,18.6,9.6,93,81,69,30.51,30.30,7,2,9,0.00
2013-3-14,57.2,39.6,28.0,46.3,33.6,22.6,95,79,65,30.29,30.09,7,2,8,0.00
2013-3-15,56.8,43.4,30.6,47.8,38.9,29.3,95,85,66,30.08,29.73,11,4,13,0.00
2013-3-16,39.3,30.8,26.1,37.7,26.8,22.8,94,85,77,30.22,29.87,18,10,22,0.00
2013-3-17,44.2,33.0,23.8,34.3,26.9,19.8,94,79,62,30.19,29.77,11,7,14,0.00
2013-3-18,36.9,32.5,25.9,32.6,23.6,17.4,96,72,48,30.10,29.75,14,6,23,0.07
2013-3-19,50.0,32.0,20.2,30.9,20.9,15.2,83,65,36,30.38,30.09,15,5,17,0.00
2013-3-20,35.1,24.3,15.8,17.4,12.2,6.9,80,61,41,30.46,30.15,12,7,16,0.00
2013-3-21,25.8,22.4,20.2,19.0,15.3,13.2,82,74,67,30.16,30.03,8,5,11,0.00
2013-3-26,43.3,31.6,12.3,24.7,21.1,10.2,91,66,45,30.44,30.28,7,3,8,0.00
2013-3-27,51.5,36.8,23.0,33.1,27.0,19.7,89,69,47,30.32,30.20,12,5,16,0.00
2013-3-28,58.2,42.4,25.6,36.6,31.1,23.9,95,68,39,30.28,30.15,6,2,8,0.00
2013-3-29,69.2,51.7,27.5,42.3,34.6,25.0,93,57,28,30.23,30.03,13,6,18,0.00
2013-3-30,64.3,54.1,45.9,55.3,46.1,36.6,97,77,43,30.07,29.89,14,5,20,0.36
2013-3-31,56.6,45.8,31.9,42.7,34.7,26.5,95,70,33,30.17,29.93,19,7,20,0.03
2013-4-1,39.4,30.2,21.9,30.4,19.4,14.6,95,67,37,30.38,30.17,14,7,17,0.00
2013-4-2,52.6,36.2,17.9,29.0,23.3,15.0,91,62,38,30.38,30.26,5,2,7,0.00
2013-4-3,56.5,40.3,26.1,30.8,26.0,20.8,84,59,35,30.37,30.22,14,6,19,0.00
2013-4-4,61.9,45.5,24.3,40.4,32.4,21.2,92,63,43,30.24,30.06,12,5,15,0.00
2013-4-5,70.2,51.7,32.5,43.4,35.4,27.7,87,57,30,30.17,29.69,22,9,25,0.00
2013-4-6,70.6,58.3,48.1,47.2,42.6,39.1,81,58,35,29.76,29.58,16,7,21,0.00
2013-4-7,72.4,54.9,36.7,51.0,43.7,33.5,96,69,36,29.83,29.59,17,5,25,0.30
2013-4-8,66.3,57.3,44.3,60.5,54.5,43.2,96,91,78,29.68,29.59,11,5,14,0.03
2013-4-9,62.1,44.3,32.5,60.1,43.0,31.2,96,95,91,29.97,29.52,22,13,30,0.82
2013-4-10,35.2,33.7,30.9,34.1,32.5,29.6,96,95,91,30.00,29.78,20,8,27,0.21
2013-4-11,35.2,31.5,28.5,32.3,29.0,26.7,95,90,85,29.85,29.69,9,6,15,0.02
2013-4-12,41.6,34.5,28.2,32.2,29.6,25.6,90,82,66,30.06,29.78,10,6,15,0.00
2013-4-13,55.4,41.2,25.9,42.2,33.7,23.2,94,76,58,30.07,29.66,13,6,15,0.00
2013-4-14,66.3,52.0,40.5,54.1,43.7,32.5,90,74,49,29.68,29.30,18,8,23,0.14
2013-4-15,45.4,38.7,31.6,33.9,29.8,24.1,88,70,61,30.12,29.67,9,5,15,0.00
2013-4-16,49.9,42.0,34.6,35.2,31.0,28.3,80,66,45,30.27,30.09,14,8,17,0.00
2013-4-17,46.2,40.4,35.8,40.6,37.1,34.0,96,89,65,30.18,29.73,17,10,23,0.60
2013-4-18,35.8,32.8,30.1,34.1,30.4,27.3,96,91,82,29.96,29.73,19,12,25,0.29
2013-4-19,45.3,35.3,27.7,29.7,25.3,21.8,85,68,46,30.14,29.92,12,7,23,0.00
2013-4-20,46.0,35.2,22.1,31.5,25.0,19.4,93,68,43,30.30,30.14,10,4,15,0.00
2013-4-21,67.3,53.2,41.3,51.1,40.7,30.8,97,65,41,30.17,29.97,20,9,29,0.38
2013-4-22,51.6,41.6,32.2,50.0,39.9,28.8,96,94,87,30.24,29.93,18,8,22,0.66
2013-4-23,36.8,31.7,26.3,28.9,25.5,22.9,88,78,65,30.30,30.20,18,11,23,0.00
2013-4-24,59.3,39.0,20.6,40.2,27.9,18.1,93,69,31,30.25,30.07,18,5,21,0.00
2013-4-25,70.1,48.5,26.8,40.6,34.0,24.7,95,63,29,30.28,30.00,20,7,24,0.00
2013-4-26,72.7,57.2,46.3,53.0,45.0,38.2,92,65,42,30.16,30.00,17,8,20,0.00
2013-4-27,71.1,53.4,38.8,55.3,46.9,37.5,97,81,49,30.19,29.92,8,4,11,0.00
2013-4-28,83.0,62.2,43.1,55.5,49.8,41.5,96,69,33,29.94,29.64,16,7,20,0.00
2013-4-29,85.0,65.9,53.7,58.7,52.3,46.8,83,64,31,29.74,29.44,13,4,15,0.00
2013-4-30,72.2,67.7,60.3,59.8,50.0,38.3,76,54,42,29.86,29.42,16,12,21,0.00
2013-5-1,59.6,39.7,31.8,43.5,36.3,30.8,96,89,53,30.45,29.86,24,16,30,0.43
2013-5-2,50.4,39.7,31.8,35.6,31.3,27.5,96,74,47,30.59,30.42,21,12,28,0.23
2013-5-3,49.2,40.0,29.5,34.0,29.9,26.3,89,68,50,30.42,30.06,17,10,20,0.00
2013-5-4,42.5,39.1,35.2,40.1,36.3,32.2,95,90,73,30.17,30.01,20,13,29,0.03
2013-5-5,54.6,46.4,40.8,48.9,43.1,38.8,93,88,81,30.20,30.11,8,6,14,0.00
2013-5-6,67.7,53.9,43.2,53.4,47.5,41.6,94,80,56,30.17,30.01,8,3,12,0.00
2013-5-7,72.6,58.9,43.6,59.9,52.7,42.3,96,82,53,30.07,29.91,11,3,14,0.24
2013-5-8,66.7,60.9,55.7,60.2,57.3,52.5,94,88,78,29.93,29.86,8,4,11,0.21
2013-5-9,66.0,58.8,54.6,60.1,56.3,52.5,97,91,77,29.98,29.82,15,7,23,0.53
2013-5-10,69.3,56.8,48.6,53.7,49.4,45.5,94,78,48,30.09,29.98,14,6,18,0.00
2013-5-11,60.0,53.2,39.9,46.8,33.4,23.2,85,50,26,30.25,30.02,17,8,27,0.00
2013-5-12,68.3,50.8,32.0,35.4,30.5,25.8,82,50,26,30.29,30.10,6,2,8,0.00
2013-5-13,83.0,58.6,43.4,52.8,43.4,33.1,85,60,29,30.10,29.88,17,7,21,0.00
2013-5-14,100.4,87.2,58.6,62.2,53.8,45.3,92,37,16,29.72,29.55,20,10,25,0.00
2013-5-15,83.9,73.3,62.2,48.9,44.7,40.5,55,37,24,29.85,29.70,15,7,20,0.00
2013-5-16,84.6,72.5,56.8,65.9,57.0,47.6,78,59,45,29.81,29.68,12,5,16,0.00
2013-5-17,86.6,74.0,58.5,64.6,61.0,56.1,93,66,44,29.83,29.73,11,6,16,0.00
2013-5-18,85.8,73.5,59.4,69.6,64.1,57.2,94,74,53,29.82,29.61,17,7,24,0.18
2013-5-19,75.5,65.2,57.6,68.8,61.8,55.6,97,89,71,29.71,29.42,16,5,20,0.65
2013-5-20,76.0,65.1,56.5,60.3,56.2,52.2,95,75,50,29.61,29.47,16,8,23,0.00
2013-5-21,62.4,57.7,53.2,57.3,50.8,47.2,92,78,65,29.72,29.56,12,7,18,0.00
2013-5-22,59.7,54.7,50.5,51.9,49.5,47.7,91,83,69,29.97,29.71,11,6,20,0.00
2013-5-23,72.7,60.0,51.3,53.4,48.9,45.1,91,70,39,30.18,29.97,13,7,17,0.00
2013-5-24,74.6,63.7,47.5,54.0,50.4,42.8,86,63,46,30.26,29.97,19,10,26,0.00
2013-5-25,80.0,69.3,57.5,69.9,62.1,50.3,96,79,60,30.06,29.88,12,7,15,0.34
2013-5-26,84.1,72.6,64.5,73.3,67.3,62.5,94,84,68,29.92,29.74,14,7,18,0.00
2013-5-27,77.7,67.4,59.1,67.2,63.1,58.5,98,87,67,29.85,29.51,20,7,22,1.52
2013-5-28,80.1,70.3,61.1,67.4,63.8,59.6,96,81,60,29.67,29.57,11,4,15,0.00
2013-5-29,76.8,68.7,62.6,71.6,65.5,60.4,98,90,80,29.65,29.44,17,9,21,1.44
2013-5-30,77.5,65.3,57.4,66.0,60.7,54.2,97,86,64,29.57,29.44,15,8,16,0.21
2013-5-31,80.0,67.8,52.7,58.7,52.0,46.0,92,60,31,29.68,29.56,15,7,19,0.00
2013-6-1,63.7,58.4,53.7,55.1,50.8,48.2,86,76,65,30.02,29.62,16,9,23,0.00
2013-6-2,69.5,58.3,51.1,48.6,46.4,43.8,85,66,44,30.12,29.98,11,5,14,0.00
2013-6-3,75.6,62.7,46.1,56.4,50.7,43.8,93,67,43,30.02,29.77,17,8,22,0.00
2013-6-4,73.4,67.2,60.4,64.9,61.5,56.0,92,82,72,29.95,29.81,10,4,14,0.05
2013-6-5,73.5,64.7,57.5,63.8,52.8,48.9,95,67,44,30.03,29.92,13,6,18,0.00
2013-6-6,72.5,63.5,54.8,56.5,51.6,49.2,89,67,47,29.97,29.92,11,5,18,0.00
2013-6-7,75.8,63.0,49.7,54.4,51.5,47.6,93,68,44,30.01,29.84,7,3,10,0.00
2013-6-8,69.5,61.7,55.7,65.0,57.8,50.6,98,88,73,29.85,29.60,12,6,14,2.01
2013-6-9,70.3,63.8,59.5,62.3,59.1,56.6,97,85,73,29.80,29.67,11,6,20,0.04
2013-6-10,79.7,67.6,53.4,69.7,61.6,52.3,96,82,65,29.86,29.72,9,3,13,0.00
2013-6-11,89.8,76.0,66.5,74.0,68.0,63.8,93,78,49,29.77,29.61,13,4,16,0.00
2013-6-12,87.3,76.5,63.0,72.9,65.4,54.1,92,70,51,29.97,29.57,15,8,24,0.00
2013-6-13,78.3,66.6,56.2,64.5,57.4,53.2,95,74,46,30.06,29.93,8,3,10,0.03
2013-6-14,90.2,73.1,63.3,76.8,66.5,58.4,98,81,63,29.99,29.66,15,7,23,0.85
2013-6-15,82.5,73.4,66.1,70.2,67.2,64.2,96,82,59,29.89,29.75,12,5,15,0.01
2013-6-16,85.5,74.2,65.0,70.8,65.2,59.8,97,76,45,29.93,29.87,8,3,11,0.00
2013-6-17,87.5,76.0,62.9,63.4,60.5,57.1,89,61,39,29.97,29.87,8,4,11,0.00
2013-6-18,83.9,72.5,61.0,63.9,60.0,57.2,91,67,43,30.02,29.90,5,1,8,0.02
2013-6-19,86.3,74.4,61.6,70.3,64.1,58.8,93,72,49,29.95,29.82,13,6,19,0.00
2013-6-20,90.1,79.8,67.8,76.0,70.4,63.1,88,74,60,29.88,29.71,17,10,24,0.00
2013-6-21,92.3,82.3,76.6,75.4,72.9,70.9,83,74,56,29.77,29.68,19,11,23,0.00
2013-6-22,89.3,79.6,66.9,75.5,69.4,60.9,95,72,51,29.95,29.68,16,10,24,0.22
2013-6-23,80.3,73.5,64.5,71.4,67.8,62.6,98,83,70,29.86,29.65,14,5,18,0.78
2013-6-24,82.6,75.2,66.0,75.5,71.1,63.6,95,87,74,29.90,29.63,15,6,21,0.41
2013-6-25,86.5,78.7,70.1,78.1,72.2,65.8,93,81,64,29.73,29.57,15,5,18,0.01
2013-6-26,91.6,80.4,71.3,74.1,69.1,61.3,97,71,40,29.81,29.59,8,3,11,0.00
2013-6-27,85.8,73.3,66.0,72.8,67.9,63.9,93,84,59,29.94,29.80,12,3,14,0.15
2013-6-28,84.9,75.6,65.4,67.8,62.8,58.5,94,67,42,29.94,29.84,12,6,19,0.00
2013-6-29,81.2,71.2,62.2,62.5,58.9,56.5,84,67,45,29.90,29.83,17,7,24,0.00
2013-6-30,77.8,67.6,57.6,60.1,56.6,52.2,94,70,45,30.07,29.90,15,5,18,0.00
2013-7-1,82.4,69.6,52.0,59.0,55.0,49.7,92,63,39,30.16,30.06,8,4,13,0.00
2013-7-2,84.7,67.9,57.1,64.0,59.5,55.0,95,77,44,30.12,30.00,10,1,12,0.05
2013-7-3,86.5,70.3,55.2,66.5,59.6,53.8,96,73,38,30.03,29.89,8,2,12,0.01
2013-7-4,85.7,72.1,54.2,63.8,59.3,52.0,94,67,43,29.94,29.82,12,5,16,0.00
2013-7-5,87.8,74.9,60.9,68.7,63.6,57.2,90,70,48,29.86,29.75,16,7,20,0.00
2013-7-6,88.6,76.6,66.4,71.0,66.0,61.4,85,71,51,29.80,29.70,15,8,18,0.00
2013-7-7,93.6,82.1,71.6,75.7,69.5,63.4,82,67,49,29.82,29.72,12,6,17,0.00
2013-7-8,90.2,80.9,74.8,77.0,73.1,69.2,90,78,57,29.88,29.80,7,3,9,0.01
2013-7-9,96.4,83.9,72.1,77.3,73.3,68.7,91,72,49,29.87,29.75,11,4,13,0.00
2013-7-10,82.3,75.8,66.0,71.7,66.4,62.7,93,74,53,30.03,29.87,11,5,15,0.00
2013-7-11,86.5,74.3,62.5,67.2,63.6,59.2,94,71,49,30.05,29.89,13,4,16,0.00
2013-7-12,90.9,78.1,66.1,75.1,67.6,59.8,84,71,58,29.93,29.82,14,7,18,0.00
2013-7-13,90.7,80.6,73.3,75.9,70.1,64.5,81,71,57,29.88,29.81,13,8,18,0.00
2013-7-14,86.2,77.3,70.4,69.5,65.0,60.4,82,67,43,30.07,29.88,10,6,15,0.00
2013-7-15,87.9,76.3,60.9,72.1,66.7,58.4,93,73,54,30.14,30.03,8,3,10,0.00
2013-7-16,90.8,78.9,66.8,71.7,67.6,64.9,95,71,46,30.19,30.10,10,3,13,0.00
2013-7-17,92.1,80.4,68.1,73.5,70.4,66.3,95,74,49,30.23,30.08,9,2,14,0.00
2013-7-18,93.0,81.0,68.8,73.2,70.1,66.7,95,72,48,30.09,29.84,14,6,17,0.00
2013-7-19,93.2,81.9,70.4,73.4,68.7,63.0,89,65,39,29.86,29.80,8,4,12,0.14
2013-7-20,88.6,76.4,63.6,68.1,64.1,59.8,92,68,43,29.93,29.77,9,3,13,0.00
2013-7-21,92.5,77.9,66.9,73.8,69.0,63.9,95,76,51,29.85,29.67,8,3,10,0.00
2013-7-22,95.2,79.6,65.6,76.3,70.5,63.7,96,76,48,29.77,29.66,11,4,11,0.02
2013-7-23,81.1,72.3,63.7,66.6,64.3,61.9,96,77,60,29.96,29.76,14,5,16,0.20
2013-7-24,83.8,71.4,57.2,67.0,62.6,55.5,95,75,55,30.04,29.93,7,2,11,0.00
2013-7-25,79.7,71.9,65.6,70.1,66.3,62.7,93,83,68,29.99,29.92,11,4,15,0.09
2013-7-26,75.4,68.1,56.5,66.4,59.6,53.3,96,76,51,30.07,29.92,13,5,19,0.01
2013-7-27,72.6,62.0,50.4,53.5,51.0,47.6,95,70,47,30.11,29.98,12,3,15,0.00
2013-7-28,78.1,62.8,45.8,56.1,51.3,44.2,94,69,46,30.05,29.97,6,2,9,0.00
2013-7-29,65.7,62.4,59.3,63.7,58.9,52.6,96,89,74,30.01,29.96,10,3,12,0.25
2013-7-30,75.5,68.9,64.3,68.6,65.7,63.1,97,90,77,30.07,29.98,8,3,10,0.02
2013-7-31,84.6,72.7,60.6,70.4,66.0,59.5,97,81,60,30.10,29.98,4,1,6,0.00
2013-8-1,87.4,71.3,60.3,72.5,66.5,58.8,98,86,56,30.04,29.78,20,5,23,0.91
2013-8-2,83.5,73.8,64.8,71.3,67.6,61.5,96,82,65,29.96,29.73,14,5,16,0.00
2013-8-3,78.1,69.7,62.6,63.3,61.1,59.2,90,75,58,30.13,29.96,10,5,13,0.00
2013-8-4,77.8,69.6,59.1,68.8,62.7,56.2,91,79,64,30.13,29.96,11,5,14,0.00
2013-8-5,85.7,75.3,66.5,76.5,71.8,65.0,97,89,73,29.98,29.77,12,4,17,0.00
2013-8-6,89.6,76.9,66.0,77.8,72.4,64.8,97,87,65,29.89,29.72,20,4,20,0.18
2013-8-7,81.5,73.7,64.6,73.3,65.2,60.6,95,76,51,29.94,29.76,10,4,13,0.00
2013-8-8,76.8,69.8,63.6,68.0,64.7,61.5,93,84,69,29.98,29.90,6,2,7,0.00
2013-8-9,78.7,70.5,60.7,70.6,64.2,59.0,96,82,56,30.10,29.96,9,3,13,0.00
2013-8-10,82.9,69.7,55.0,68.8,62.5,53.6,95,79,59,30.15,30.02,10,4,14,0.00
2013-8-11,86.1,73.2,61.7,73.2,67.1,59.7,94,82,61,30.07,29.91,10,5,14,0.00
2013-8-12,83.1,74.1,66.6,70.4,66.9,62.6,96,80,53,30.01,29.93,10,5,14,0.01
2013-8-13,78.9,69.8,61.1,64.2,61.1,57.6,91,75,52,30.12,30.01,7,3,10,0.00
2013-8-14,74.7,65.4,55.6,63.6,59.6,54.2,96,82,64,30.15,30.02,8,3,13,0.00
2013-8-15,66.7,63.1,60.0,63.2,60.8,59.1,97,92,86,30.07,29.98,10,5,16,0.75
2013-8-16,74.0,66.4,61.4,62.9,60.6,58.8,94,82,65,30.13,30.06,9,4,16,0.00
2013-8-17,78.3,67.4,57.4,62.3,59.6,55.6,96,78,54,30.15,30.06,12,4,16,0.00
2013-8-18,80.0,67.0,52.9,65.3,59.5,51.5,97,79,55,30.12,29.99,11,4,14,0.00
2013-8-19,85.6,73.8,62.9,72.3,67.0,61.1,95,81,61,30.03,29.85,14,6,20,0.00
2013-8-20,88.9,77.7,69.9,74.9,70.4,66.9,94,79,60,29.90,29.82,13,7,15,0.00
2013-8-21,91.8,79.5,69.4,76.9,71.2,66.5,91,77,58,29.92,29.85,12,7,18,0.00
2013-8-22,84.2,75.8,68.0,71.9,69.2,66.4,95,81,63,30.03,29.88,13,3,14,0.00
2013-8-23,89.4,78.2,68.3,74.2,70.4,66.7,95,79,54,30.01,29.89,13,5,19,0.00
2013-8-24,92.4,82.0,73.1,76.6,72.4,69.2,88,74,59,29.97,29.89,16,9,20,0.00
2013-8-25,94.6,82.9,73.5,76.7,73.1,70.1,90,74,52,30.02,29.93,15,9,21,0.00
2013-8-26,94.7,82.9,73.3,76.7,72.7,69.5,88,73,53,29.99,29.85,14,8,18,0.00
2013-8-27,95.5,82.6,72.7,75.2,70.9,67.0,85,69,48,29.87,29.80,13,7,17,0.00
2013-8-28,94.9,78.8,65.4,74.9,68.1,62.1,91,72,43,29.92,29.84,8,3,10,0.00
2013-8-29,96.8,80.7,66.5,76.8,71.4,64.3,96,76,48,29.93,29.81,11,4,14,0.00
2013-8-30,94.3,80.2,66.8,80.6,72.8,65.3,96,80,56,29.83,29.75,11,2,14,0.00
2013-8-31,94.0,79.6,70.2,77.1,72.2,68.4,94,80,49,29.83,29.68,8,2,11,0.00
2013-9-1,83.0,74.2,61.8,71.3,64.4,58.9,95,74,47,29.94,29.68,12,5,17,0.00
2013-9-2,80.0,66.4,54.2,62.3,56.9,52.5,94,75,41,30.07,29.94,8,3,13,0.00
2013-9-3,86.7,67.7,50.0,68.1,59.2,48.6,96,77,50,30.06,29.96,8,3,12,0.00
2013-9-4,87.5,72.4,62.0,67.4,63.2,59.1,93,75,44,30.10,29.99,10,4,12,0.00
2013-9-5,88.6,75.2,65.9,67.7,64.6,62.1,91,72,44,30.13,30.02,11,4,14,0.00
2013-9-6,94.2,78.4,64.0,72.2,67.1,60.2,90,70,47,30.03,29.82,14,7,19,0.00
2013-9-7,87.6,76.2,66.8,74.7,69.9,64.7,94,82,58,29.85,29.76,11,4,15,0.01
2013-9-8,93.4,79.6,68.5,76.9,72.1,67.2,96,80,55,29.85,29.69,8,3,10,0.00
2013-9-9,97.8,82.9,71.4,72.2,65.5,61.3,94,59,32,29.76,29.68,16,7,23,0.00
2013-9-10,93.7,76.8,67.9,73.8,66.3,60.3,95,72,44,29.99,29.76,16,4,21,1.39
2013-9-11,82.7,73.5,68.1,72.4,69.1,66.4,96,87,59,30.06,29.96,6,2,9,0.35
2013-9-12,78.3,69.8,56.4,68.2,58.7,51.6,95,71,42,30.18,30.05,11,4,14,0.00
2013-9-13,75.4,62.7,49.1,56.5,52.5,46.8,94,72,46,30.19,30.03,5,2,7,0.00
2013-9-14,76.7,64.4,50.9,59.6,54.8,48.7,93,73,49,30.04,29.81,14,6,18,0.00
2013-9-15,67.5,64.6,61.2,66.1,59.7,55.8,98,84,75,30.20,29.80,16,7,21,0.46
2013-9-16,67.2,60.9,55.2,57.1,55.0,52.4,93,81,66,30.29,30.15,9,5,13,0.02
2013-9-17,73.1,64.1,57.2,69.5,62.3,56.0,98,94,86,30.16,29.83,13,5,15,0.26
2013-9-18,90.4,77.2,66.2,73.6,69.4,65.0,96,79,56,29.83,29.61,16,9,20,0.00
2013-9-19,78.9,69.7,56.6,68.4,62.1,52.6,94,78,60,29.97,29.64,13,6,18,0.17
2013-9-20,71.0,58.2,47.1,53.9,48.2,45.2,94,72,43,30.06,29.94,12,3,16,0.00
2013-9-21,77.6,58.9,40.8,58.4,50.0,39.6,96,76,47,30.01,29.81,9,3,12,0.00
2013-9-22,81.0,66.6,51.3,57.5,53.5,49.3,95,67,36,29.85,29.73,17,8,24,0.00
2013-9-23,77.4,65.8,52.5,57.2,53.3,49.3,89,66,47,29.78,29.65,18,10,24,0.00
2013-9-24,69.8,64.0,54.6,60.2,56.9,52.2,94,78,65,29.87,29.64,12,6,14,0.00
2013-9-25,79.2,64.0,48.4,62.9,56.7,47.0,96,80,54,29.88,29.69,12,4,16,0.00
2013-9-26,87.5,73.6,62.1,63.5,61.2,58.5,89,68,43,29.74,29.65,19,11,27,0.00
2013-9-27,88.6,76.6,68.4,65.4,62.1,59.2,79,62,43,29.75,29.65,21,12,25,0.00
2013-9-28,74.3,61.2,45.7,64.2,51.0,42.3,94,71,43,30.02,29.60,16,6,23,0.40
2013-9-29,77.3,58.0,41.6,49.9,45.3,39.4,95,68,34,30.03,29.84,14,5,19,0.00
2013-9-30,81.9,63.4,47.7,55.7,51.4,45.5,94,68,38,29.86,29.65,16,6,20,0.00
2013-10-1,79.3,65.9,51.1,55.4,50.6,46.2,94,62,32,29.91,29.72,10,4,13,0.00
2013-10-2,85.3,69.1,53.1,67.8,59.7,48.3,94,74,49,29.91,29.76,17,6,22,0.00
2013-10-3,80.0,68.2,60.1,68.1,62.5,58.8,97,83,65,29.83,29.64,15,5,17,1.49
2013-10-4,84.1,66.3,49.7,73.5,60.6,39.6,97,83,55,29.85,29.54,17,10,26,1.17
2013-10-5,51.1,45.4,40.7,39.4,35.6,33.7,89,69,53,29.92,29.81,16,10,20,0.00
2013-10-6,53.9,46.7,41.0,46.9,41.5,37.4,93,82,62,30.02,29.78,11,5,17,0.01
2013-10-7,74.6,55.3,37.7,46.4,41.3,35.3,93,64,31,30.08,29.96,12,4,17,0.00
2013-10-8,77.9,61.6,46.2,50.9,45.9,40.7,82,59,37,29.97,29.83,21,10,24,0.00
2013-10-9,79.1,63.5,49.4,55.9,51.0,45.8,88,66,42,29.95,29.86,16,8,21,0.00
2013-10-10,80.7,66.8,54.5,60.1,55.1,49.1,86,68,48,29.94,29.72,18,9,23,0.00
2013-10-11,78.3,65.6,53.0,60.9,52.2,43.1,85,65,29,29.85,29.56,21,11,26,0.00
2013-10-12,66.5,51.8,38.1,43.3,37.0,32.2,92,62,28,30.27,29.86,8,2,11,0.00
2013-10-13,68.8,51.0,33.8,41.9,37.0,31.4,93,63,33,30.41,30.26,8,3,15,0.00
2013-10-14,58.8,52.8,45.6,58.2,47.0,36.4,98,82,53,30.27,29.69,19,8,30,1.40
2013-10-15,53.8,47.3,44.2,50.6,41.2,37.2,89,79,71,30.07,29.77,13,8,19,0.00
2013-10-16,57.8,46.5,39.2,40.7,36.9,28.5,87,72,37,30.09,29.96,8,3,11,0.00
2013-10-17,58.8,44.2,30.0,44.9,37.2,28.3,95,78,51,30.07,29.89,11,4,17,0.00
2013-10-18,50.2,40.8,32.8,38.2,31.7,28.4,92,72,44,30.15,30.02,5,3,10,0.00
2013-10-19,61.9,45.1,29.0,39.9,34.0,26.7,93,69,41,30.02,29.81,14,3,16,0.00
2013-10-20,65.6,50.2,39.3,45.5,39.5,34.9,88,69,41,30.03,29.70,10,4,14,0.00
2013-10-21,54.9,41.0,27.0,38.6,33.8,25.3,95,77,49,30.11,29.94,9,2,11,0.00
2013-10-22,49.5,43.2,37.5,43.3,38.4,34.9,93,84,65,30.02,29.88,12,4,18,0.00
2013-10-23,51.6,42.8,30.3,40.8,37.2,29.0,95,81,65,30.24,30.06,12,5,18,0.00
2013-10-24,49.0,37.4,26.3,33.9,27.5,22.7,91,70,39,30.43,30.24,8,3,12,0.00
2013-10-25,59.4,41.5,22.8,36.7,29.5,20.0,91,65,41,30.43,30.08,17,6,24,0.00
2013-10-26,50.3,41.7,26.8,36.4,31.2,23.4,89,68,44,30.24,30.04,13,5,18,0.00
2013-10-27,71.4,45.9,25.1,42.0,32.7,22.5,91,65,32,30.17,29.83,13,5,17,0.00
2013-10-28,53.0,46.2,39.3,41.0,37.2,33.6,80,71,59,30.20,29.94,14,9,19,0.00
2013-10-29,51.8,46.7,42.3,51.0,44.9,39.7,97,93,81,30.18,29.93,11,5,13,0.22
2013-10-30,51.7,45.9,42.2,50.6,44.8,40.3,97,96,93,29.97,29.77,9,4,13,0.03
2013-10-31,57.6,43.6,33.3,47.1,38.3,32.0,96,83,53,29.77,29.51,9,3,9,0.00
2013-11-1,59.3,46.7,36.7,43.7,38.9,33.8,90,76,46,30.01,29.61,14,5,24,0.00
2013-11-2,58.9,43.6,33.3,39.0,33.7,29.7,90,71,38,30.20,30.01,10,3,15,0.00
2013-11-3,57.5,47.9,35.7,40.5,36.0,30.7,84,64,48,30.08,29.73,24,12,34,0.00
2013-11-4,55.9,47.0,31.8,43.8,38.0,28.0,88,72,52,30.14,29.76,14,5,18,0.00
2013-11-5,43.5,38.7,33.2,41.0,36.0,31.7,97,90,75,30.14,29.83,16,9,24,1.14
2013-11-6,42.5,35.0,29.0,35.5,31.6,27.0,95,88,70,30.30,30.08,12,4,17,0.01
2013-11-7,48.6,35.5,26.7,33.3,27.3,22.7,95,74,40,30.44,30.30,9,3,12,0.00
2013-11-8,61.5,46.9,29.4,40.4,34.7,23.4,83,64,41,30.30,29.73,23,8,29,0.00
2013-11-9,59.9,47.3,36.9,39.9,35.7,31.8,83,65,43,30.36,29.93,7,3,11,0.00
2013-11-10,53.4,41.0,27.5,36.5,31.9,25.2,93,72,46,30.42,30.15,10,4,13,0.00
2013-11-11,45.0,31.3,17.8,40.1,24.3,11.2,95,76,55,30.83,30.11,20,11,27,0.00
2013-11-12,34.4,20.0,9.2,13.4,10.2,6.1,88,68,35,30.96,30.63,8,3,12,0.00
2013-11-13,54.8,35.9,18.8,33.2,23.6,11.7,79,62,43,30.62,30.01,16,8,20,0.00
2013-11-14,57.5,40.5,29.1,40.5,31.1,24.8,91,70,51,30.01,29.89,8,2,8,0.00
2013-11-15,57.0,39.9,24.2,41.9,33.6,22.7,95,80,51,29.91,29.59,13,5,18,0.00
2013-11-16,63.6,49.9,36.7,52.7,41.1,30.5,95,74,43,29.59,29.31,18,6,21,0.00
2013-11-17,56.3,45.9,34.0,46.1,37.1,30.6,89,72,57,30.07,29.32,13,4,13,0.00
2013-11-18,57.9,38.8,23.7,34.3,26.8,19.8,91,66,28,30.26,30.07,8,3,10,0.00
2013-11-19,62.0,46.3,29.5,37.8,29.9,23.3,81,56,33,30.19,29.86,24,11,28,0.00
2013-11-20,59.3,47.4,37.0,40.9,35.3,30.3,90,64,50,29.93,29.72,18,8,20,0.00
2013-11-21,37.5,26.9,19.2,34.6,21.9,16.3,93,82,68,30.63,29.93,18,12,22,0.00
2013-11-22,30.4,18.8,11.8,16.3,10.7,6.5,88,71,50,30.78,30.63,11,4,15,0.00
2013-11-23,23.1,15.8,7.5,16.4,6.8,1.8,83,68,46,30.98,30.71,14,6,19,0.00
2013-11-24,32.5,20.1,6.2,16.8,10.1,1.4,83,66,50,30.84,30.28,16,9,20,0.00
2013-11-25,44.9,31.4,22.1,30.7,22.7,11.4,84,70,52,30.28,30.15,11,5,15,0.00
2013-11-26,30.4,23.4,11.5,24.1,14.3,6.3,89,70,45,30.50,30.25,15,6,20,0.00
2013-11-27,33.8,20.3,4.3,19.1,11.4,0.9,90,70,47,30.50,30.10,17,6,19,0.00
2013-11-28,33.9,25.3,13.9,22.9,17.3,8.7,86,72,53,30.53,30.13,15,5,20,0.00
2013-11-29,46.2,28.5,11.0,29.6,21.0,7.9,91,75,52,30.54,30.18,14,5,17,0.00
2013-11-30,58.2,35.7,21.3,34.9,26.7,18.5,93,72,40,30.18,30.08,5,1,5,0.00
2013-12-1,48.2,33.5,17.9,31.8,25.6,15.4,92,74,51,30.19,29.88,4,1,5,0.00
2013-12-2,64.6,43.1,28.9,38.2,32.0,25.3,93,68,37,29.88,29.52,6,2,8,0.00
2013-12-3,43.1,36.2,31.3,34.8,31.6,27.6,91,83,72,29.71,29.49,14,6,19,0.00
2013-12-4,33.2,20.5,15.0,31.3,16.4,7.6,94,84,72,30.15,29.68,13,8,18,0.00
2013-12-5,15.5,10.1,5.4,8.6,0.6,-3.7,76,65,52,30.55,30.14,10,6,14,0.00
2013-12-6,10.9,3.6,-2.3,-3.1,-5.4,-8.4,78,66,51,30.83,30.54,11,6,16,0.00
2013-12-7,11.0,3.6,-7.3,6.3,-3.9,-12.0,85,71,57,30.88,30.52,8,3,10,0.00
2013-12-8,17.7,12.1,4.5,12.3,8.7,1.6,90,86,78,30.52,30.10,8,3,11,0.00
2013-12-9,14.1,3.4,-9.4,6.7,-2.9,-13.9,88,75,60,30.45,30.19,16,5,21,0.00
2013-12-10,28.3,21.0,10.0,26.1,14.0,4.8,93,74,61,30.35,30.18,12,5,14,0.00
2013-12-11,28.2,7.0,-3.6,24.6,0.2,-9.0,86,73,58,30.75,30.32,15,5,20,0.00
2013-12-12,32.4,17.2,1.0,23.4,11.6,-3.2,92,79,68,30.56,30.15,8,4,10,0.00
2013-12-13,31.1,20.9,9.1,25.4,17.6,6.3,93,87,78,30.17,29.94,15,5,17,0.00
2013-12-14,21.8,16.1,8.7,17.3,12.3,6.1,91,85,77,30.30,30.17,15,5,17,0.00
2013-12-15,28.5,19.7,10.9,22.9,16.3,8.4,92,86,78,30.25,30.03,6,2,6,0.00
2013-12-16,47.0,25.8,8.7,36.1,21.4,6.1,92,84,62,30.23,30.05,11,2,13,0.00
2013-12-17,41.7,30.5,21.1,29.6,22.1,15.5,93,73,42,30.34,30.13,10,3,18,0.00
2013-12-18,57.3,37.4,23.7,35.4,27.6,19.2,86,69,42,30.13,29.72,12,4,13,0.00
2013-12-19,32.6,27.1,15.8,27.7,22.5,13.4,90,83,72,29.95,29.75,16,10,22,0.00
2013-12-20,17.9,14.5,10.7,13.3,10.8,7.8,90,85,82,30.07,29.95,13,6,18,0.00
2013-12-21,23.5,19.5,15.1,18.3,15.2,11.6,89,83,72,29.98,29.86,16,6,21,0.00
2013-12-22,21.2,15.1,7.5,18.2,9.2,1.8,91,78,63,30.50,29.95,14,8,18,0.00
2013-12-23,11.7,5.2,0.3,1.8,-4.2,-8.5,77,65,48,30.72,30.49,11,5,15,0.00
2013-12-24,25.3,14.3,0.1,22.9,9.6,-8.3,94,81,67,30.65,30.22,20,9,24,0.00
2013-12-25,42.5,26.6,15.2,29.7,20.6,12.7,93,79,53,30.36,30.29,15,5,24,0.00
2013-12-26,51.2,32.3,19.0,26.3,20.9,15.2,87,65,32,30.31,30.15,9,3,11,0.00
2013-12-27,63.2,37.0,15.5,32.0,22.9,11.4,90,62,27,30.31,30.09,15,4,23,0.00
2013-12-28,60.7,38.7,14.9,31.6,25.3,6.9,84,63,27,30.19,29.74,20,9,24,0.00
2013-12-29,14.3,7.0,-0.9,6.3,-7.5,-13.6,75,52,30,30.47,30.19,18,9,26,0.00
2013-12-30,38.6,17.8,0.4,26.5,6.1,-8.7,81,60,46,30.39,30.15,13,8,18,0.00
2013-12-31,33.2,14.8,4.3,21.3,8.6,1.2,88,77,60,30.37,30.08,17,6,19,0.00
2014-1-1,9.7,6.8,1.1,4.5,2.1,-4.2,86,81,76,30.53,30.22,14,10,18,0.00
2014-1-2,7.5,1.2,-5.4,0.6,-4.0,-10.5,85,79,71,30.59,30.49,8,3,9,0.00